createdAt,value
2019-02-09T00:01:00.492Z,42.02
2019-02-09T00:02:00.737Z,42.02
2019-02-09T00:03:01.299Z,42.07
2019-02-09T00:04:00.096Z,42.03
2019-02-09T00:04:59.868Z,42.06
2019-02-09T00:05:59.115Z,42.04
2019-02-09T00:06:59.265Z,42.03
2019-02-09T00:07:59.231Z,42.06
2019-02-09T00:08:59.838Z,42.1
2019-02-09T00:09:59.990Z,42.03
2019-02-09T00:11:00.018Z,42.08
2019-02-09T00:11:59.781Z,42.05
2019-02-09T00:12:59.532Z,42.08
2019-02-09T00:13:59.301Z,42.04
2019-02-09T00:14:59.099Z,42.05
2019-02-09T00:15:59.210Z,42.02
2019-02-09T00:16:59.068Z,42.07
2019-02-09T00:17:59.171Z,42.09
2019-02-09T00:18:59.839Z,42.05
2019-02-09T00:20:00.050Z,42.08
2019-02-09T00:20:59.209Z,42.12
2019-02-09T00:21:59.375Z,42.08
2019-02-09T00:22:59.472Z,42.1
2019-02-09T00:24:00.601Z,42.09
2019-02-09T00:24:59.622Z,42.09
2019-02-09T00:25:59.291Z,42.09
2019-02-09T00:26:59.345Z,42.14
2019-02-09T00:27:59.530Z,42.16
2019-02-09T00:28:59.253Z,42.11
2019-02-09T00:29:59.278Z,42.09
2019-02-09T00:30:59.181Z,42.11
2019-02-09T00:31:59.257Z,42.14
2019-02-09T00:32:59.624Z,42.11
2019-02-09T00:33:59.547Z,42.13
2019-02-09T00:34:59.157Z,42.11
2019-02-09T00:35:59.420Z,42.15
2019-02-09T00:36:59.838Z,42.18
2019-02-09T00:38:00.131Z,42.09
2019-02-09T00:38:59.407Z,42.17
2019-02-09T00:40:01.211Z,42.13
2019-02-09T00:40:59.475Z,42.16
2019-02-09T00:41:59.806Z,42.15
2019-02-09T00:43:03.816Z,42.12
2019-02-09T00:43:59.401Z,42.12
2019-02-09T00:44:59.276Z,42.14
2019-02-09T00:45:59.732Z,42.16
2019-02-09T00:46:59.645Z,42.17
2019-02-09T00:47:59.170Z,42.14
2019-02-09T00:48:59.450Z,42.12
2019-02-09T00:49:59.676Z,42.13
2019-02-09T00:51:00.026Z,42.1
2019-02-09T00:52:01.105Z,42.12
2019-02-09T00:52:59.686Z,42.1
2019-02-09T00:53:59.023Z,42.13
2019-02-09T00:55:01.053Z,42.13
2019-02-09T00:56:00.140Z,42.13
2019-02-09T00:57:00.165Z,42.1
2019-02-09T00:57:59.280Z,42.13
2019-02-09T00:58:59.652Z,42.15
2019-02-09T00:59:59.160Z,42.18
2019-02-09T01:00:59.309Z,42.15
2019-02-09T01:02:00.067Z,42.14
2019-02-09T01:02:59.416Z,42.13
2019-02-09T01:04:00.698Z,42.15
2019-02-09T01:04:59.301Z,42.11
2019-02-09T01:05:59.370Z,42.11
2019-02-09T01:06:59.247Z,42.13
2019-02-09T01:07:59.189Z,42.11
2019-02-09T01:08:59.591Z,42.15
2019-02-09T01:09:59.697Z,42.11
2019-02-09T01:10:59.507Z,42.2
2019-02-09T01:12:00.188Z,42.11
2019-02-09T01:12:59.462Z,42.15
2019-02-09T01:14:01.104Z,42.2
2019-02-09T01:14:59.479Z,42.14
2019-02-09T01:15:59.349Z,42.16
2019-02-09T01:16:59.757Z,42.18
2019-02-09T01:17:59.578Z,42.2
2019-02-09T01:18:59.668Z,42.17
2019-02-09T01:19:59.978Z,42.13
2019-02-09T01:20:59.844Z,42.17
2019-02-09T01:21:59.607Z,42.14
2019-02-09T01:22:59.287Z,42.12
2019-02-09T01:24:00.029Z,42.14
2019-02-09T01:24:59.800Z,42.13
2019-02-09T01:26:00.020Z,42.18
2019-02-09T01:26:59.099Z,42.17
2019-02-09T01:27:59.828Z,42.18
2019-02-09T01:28:59.840Z,42.15
2019-02-09T01:30:03.275Z,42.13
2019-02-09T01:30:59.543Z,42.17
2019-02-09T01:31:59.243Z,42.21
2019-02-09T01:32:59.361Z,42.17
2019-02-09T01:33:59.275Z,42.13
2019-02-09T01:34:59.547Z,42.18
2019-02-09T01:35:59.119Z,42.18
2019-02-09T01:36:59.479Z,42.19
2019-02-09T01:37:59.476Z,42.16
2019-02-09T01:38:59.213Z,42.2
2019-02-09T01:39:59.611Z,42.23
2019-02-09T01:41:01.220Z,42.2
2019-02-09T01:41:59.201Z,42.22
2019-02-09T01:42:59.305Z,42.23
2019-02-09T01:43:59.176Z,42.23
2019-02-09T01:44:59.739Z,42.21
2019-02-09T01:45:59.816Z,42.17
2019-02-09T01:46:59.193Z,42.2
2019-02-09T01:47:59.266Z,42.24
2019-02-09T01:48:59.967Z,42.2
2019-02-09T01:49:59.064Z,42.2
2019-02-09T01:50:59.293Z,42.21
2019-02-09T01:51:59.581Z,42.22
2019-02-09T01:53:01.071Z,42.22
2019-02-09T01:53:59.395Z,42.23
2019-02-09T01:54:59.024Z,42.26
2019-02-09T01:56:00.758Z,42.21
2019-02-09T01:56:59.933Z,42.24
2019-02-09T01:58:04.939Z,42.19
2019-02-09T01:58:59.127Z,42.24
2019-02-09T01:59:58.960Z,42.23
2019-02-09T02:00:59.478Z,42.25
2019-02-09T02:01:59.258Z,42.23
2019-02-09T02:02:59.710Z,42.23
2019-02-09T02:03:59.192Z,42.2
2019-02-09T02:04:59.700Z,42.22
2019-02-09T02:05:59.168Z,42.21
2019-02-09T02:06:59.247Z,42.21
2019-02-09T02:07:59.824Z,42.19
2019-02-09T02:08:59.096Z,42.24
2019-02-09T02:09:59.280Z,42.23
2019-02-09T02:10:59.415Z,42.23
2019-02-09T02:11:59.395Z,42.24
2019-02-09T02:13:00.231Z,42.27
2019-02-09T02:14:00.108Z,42.31
2019-02-09T02:14:59.240Z,42.27
2019-02-09T02:15:59.793Z,42.24
2019-02-09T02:16:59.242Z,42.22
2019-02-09T02:17:59.297Z,42.26
2019-02-09T02:18:59.320Z,42.27
2019-02-09T02:19:59.482Z,42.26
2019-02-09T02:20:59.286Z,42.35
2019-02-09T02:21:59.107Z,42.29
2019-02-09T02:22:59.309Z,42.29
2019-02-09T02:23:59.289Z,42.29
2019-02-09T02:24:59.488Z,42.33
2019-02-09T02:25:59.422Z,42.3
2019-02-09T02:26:59.291Z,42.3
2019-02-09T02:28:00.980Z,42.31
2019-02-09T02:28:59.344Z,42.31
2019-02-09T02:29:59.309Z,42.29
2019-02-09T02:30:59.187Z,42.29
2019-02-09T02:31:59.192Z,42.33
2019-02-09T02:32:59.382Z,42.29
2019-02-09T02:33:59.827Z,42.3
2019-02-09T02:34:59.262Z,42.3
2019-02-09T02:35:59.207Z,42.33
2019-02-09T02:37:01.006Z,42.34
2019-02-09T02:37:59.727Z,42.3
2019-02-09T02:38:59.752Z,42.33
2019-02-09T02:39:59.163Z,42.38
2019-02-09T02:40:59.443Z,42.37
2019-02-09T02:41:59.688Z,42.37
2019-02-09T02:42:59.225Z,42.36
2019-02-09T02:43:59.160Z,42.39
2019-02-09T02:45:00.033Z,42.38
2019-02-09T02:45:59.196Z,42.35
2019-02-09T02:47:00.937Z,42.34
2019-02-09T02:47:59.247Z,42.39
2019-02-09T02:48:59.094Z,42.29
2019-02-09T02:49:59.451Z,42.36
2019-02-09T02:50:59.546Z,42.32
2019-02-09T02:51:59.182Z,42.35
2019-02-09T02:52:59.417Z,42.34
2019-02-09T02:53:59.718Z,42.32
2019-02-09T02:54:59.773Z,42.39
2019-02-09T02:55:59.112Z,42.34
2019-02-09T02:57:00.057Z,42.37
2019-02-09T02:57:59.457Z,42.37
2019-02-09T02:59:00.169Z,42.41
2019-02-09T02:59:59.469Z,42.36
2019-02-09T03:01:00.113Z,42.39
2019-02-09T03:01:59.481Z,42.36
2019-02-09T03:02:59.171Z,42.39
2019-02-09T03:03:59.222Z,42.37
2019-02-09T03:04:59.372Z,42.41
2019-02-09T03:05:59.216Z,42.41
2019-02-09T03:06:59.164Z,42.37
2019-02-09T03:07:59.838Z,42.41
2019-02-09T03:08:59.368Z,42.41
2019-02-09T03:09:59.841Z,42.43
2019-02-09T03:10:59.388Z,42.46
2019-02-09T03:11:59.204Z,42.45
2019-02-09T03:12:59.481Z,42.46
2019-02-09T03:13:59.917Z,42.45
2019-02-09T03:14:59.245Z,42.45
2019-02-09T03:15:59.819Z,42.46
2019-02-09T03:16:59.210Z,42.46
2019-02-09T03:17:59.915Z,42.45
2019-02-09T03:18:59.239Z,42.43
2019-02-09T03:19:59.430Z,42.49
2019-02-09T03:21:00.101Z,42.48
2019-02-09T03:21:59.532Z,42.41
2019-02-09T03:22:59.655Z,42.45
2019-02-09T03:24:00.993Z,42.46
2019-02-09T03:24:59.335Z,42.47
2019-02-09T03:25:59.127Z,42.48
2019-02-09T03:26:59.977Z,42.46
2019-02-09T03:28:00.693Z,42.43
2019-02-09T03:28:59.901Z,42.53
2019-02-09T03:29:59.264Z,42.51
2019-02-09T03:30:59.306Z,42.49
2019-02-09T03:31:59.880Z,42.49
2019-02-09T03:33:00.245Z,42.51
2019-02-09T03:33:59.600Z,42.47
2019-02-09T03:35:00.679Z,42.51
2019-02-09T03:36:01.092Z,42.48
2019-02-09T03:36:58.982Z,42.53
2019-02-09T03:37:59.155Z,42.51
2019-02-09T03:38:59.582Z,42.51
2019-02-09T03:39:59.448Z,42.53
2019-02-09T03:40:59.441Z,42.48
2019-02-09T03:41:59.874Z,42.53
2019-02-09T03:42:59.064Z,42.48
2019-02-09T03:43:59.457Z,42.51
2019-02-09T03:44:59.379Z,42.51
2019-02-09T03:45:59.466Z,42.52
2019-02-09T03:46:59.698Z,42.53
2019-02-09T03:47:59.476Z,42.47
2019-02-09T03:48:59.193Z,42.51
2019-02-09T03:50:00.023Z,42.51
2019-02-09T03:50:59.256Z,42.54
2019-02-09T03:51:59.308Z,42.51
2019-02-09T03:52:59.295Z,42.5
2019-02-09T03:53:59.330Z,42.5
2019-02-09T03:54:59.286Z,42.51
2019-02-09T03:55:59.110Z,42.56
2019-02-09T03:56:59.439Z,42.52
2019-02-09T03:57:59.390Z,42.57
2019-02-09T03:58:59.553Z,42.53
2019-02-09T03:59:59.255Z,42.59
2019-02-09T04:00:59.096Z,42.56
2019-02-09T04:01:59.316Z,42.55
2019-02-09T04:02:59.452Z,42.54
2019-02-09T04:03:59.531Z,42.51
2019-02-09T04:04:59.341Z,42.54
2019-02-09T04:05:59.460Z,42.56
2019-02-09T04:06:59.500Z,42.55
2019-02-09T04:07:59.254Z,42.54
2019-02-09T04:08:59.360Z,42.56
2019-02-09T04:09:59.355Z,42.54
2019-02-09T04:10:59.204Z,42.55
2019-02-09T04:11:59.751Z,42.55
2019-02-09T04:12:59.405Z,42.56
2019-02-09T04:14:01.150Z,42.56
2019-02-09T04:14:59.264Z,42.58
2019-02-09T04:15:59.092Z,42.6
2019-02-09T04:17:01.041Z,42.57
2019-02-09T04:17:59.574Z,42.63
2019-02-09T04:18:59.362Z,42.52
2019-02-09T04:19:59.399Z,42.57
2019-02-09T04:20:59.630Z,42.56
2019-02-09T04:21:59.181Z,42.57
2019-02-09T04:23:01.020Z,42.59
2019-02-09T04:23:59.981Z,42.55
2019-02-09T04:24:59.003Z,42.56
2019-02-09T04:25:59.885Z,42.57
2019-02-09T04:26:59.377Z,42.64
2019-02-09T04:27:59.425Z,42.57
2019-02-09T04:28:59.182Z,42.56
2019-02-09T04:29:59.763Z,42.61
2019-02-09T04:31:07.383Z,42.62
2019-02-09T04:31:59.620Z,42.6
2019-02-09T04:33:00.460Z,42.61
2019-02-09T04:33:59.206Z,42.58
2019-02-09T04:34:59.412Z,42.58
2019-02-09T04:35:59.331Z,42.6
2019-02-09T04:36:59.262Z,42.58
2019-02-09T04:37:59.403Z,42.58
2019-02-09T04:38:59.171Z,42.59
2019-02-09T04:39:59.161Z,42.57
2019-02-09T04:40:59.002Z,42.57
2019-02-09T04:41:59.876Z,42.54
2019-02-09T04:42:59.211Z,42.58
2019-02-09T04:43:59.331Z,42.56
2019-02-09T04:44:59.579Z,42.61
2019-02-09T04:45:59.507Z,42.59
2019-02-09T04:46:59.106Z,42.61
2019-02-09T04:47:59.202Z,42.61
2019-02-09T04:48:59.453Z,42.53
2019-02-09T04:49:59.647Z,42.53
2019-02-09T04:50:59.028Z,42.57
2019-02-09T04:52:00.144Z,42.52
2019-02-09T04:53:00.081Z,42.54
2019-02-09T04:53:59.551Z,42.55
2019-02-09T04:54:59.036Z,42.52
2019-02-09T04:55:59.562Z,42.53
2019-02-09T04:56:59.517Z,42.51
2019-02-09T04:57:59.707Z,42.49
2019-02-09T04:58:59.415Z,42.49
2019-02-09T04:59:59.525Z,42.51
2019-02-09T05:00:59.141Z,42.5
2019-02-09T05:01:59.209Z,42.52
2019-02-09T05:02:59.473Z,42.52
2019-02-09T05:03:59.870Z,42.44
2019-02-09T05:04:59.394Z,42.46
2019-02-09T05:05:59.295Z,42.45
2019-02-09T05:07:01.122Z,42.43
2019-02-09T05:07:59.890Z,42.4
2019-02-09T05:08:59.481Z,42.38
2019-02-09T05:09:59.410Z,42.38
2019-02-09T05:10:59.455Z,42.35
2019-02-09T05:11:59.361Z,42.34
2019-02-09T05:12:59.068Z,42.35
2019-02-09T05:13:59.228Z,42.29
2019-02-09T05:14:59.317Z,42.27
2019-02-09T05:15:59.236Z,42.25
2019-02-09T05:17:00.034Z,42.24
2019-02-09T05:17:59.550Z,42.2
2019-02-09T05:18:59.621Z,42.19
2019-02-09T05:19:59.043Z,42.18
2019-02-09T05:20:59.533Z,42.3
2019-02-09T05:21:59.072Z,42.19
2019-02-09T05:22:59.357Z,42.21
2019-02-09T05:23:59.114Z,42.17
2019-02-09T05:25:01.075Z,42.22
2019-02-09T05:25:59.072Z,42.17
2019-02-09T05:27:00.162Z,42.18
2019-02-09T05:27:59.021Z,42.1
2019-02-09T05:28:59.313Z,42.23
2019-02-09T05:29:59.674Z,42.22
2019-02-09T05:30:59.377Z,42.06
2019-02-09T05:31:59.987Z,42.13
2019-02-09T05:33:01.533Z,42.13
2019-02-09T05:33:59.069Z,42.13
2019-02-09T05:34:59.330Z,42.19
2019-02-09T05:35:59.415Z,42.16
2019-02-09T05:36:59.213Z,42.17
2019-02-09T05:37:59.242Z,42.15
2019-02-09T05:38:59.285Z,42.14
2019-02-09T05:39:59.373Z,42.17
2019-02-09T05:40:58.989Z,42.15
2019-02-09T05:41:59.052Z,42.09
2019-02-09T05:42:59.274Z,42.22
2019-02-09T05:43:59.111Z,42.17
2019-02-09T05:44:59.202Z,42.16
2019-02-09T05:45:59.783Z,42.11
2019-02-09T05:46:59.158Z,42.14
2019-02-09T05:47:59.299Z,42.12
2019-02-09T05:48:59.567Z,42.2
2019-02-09T05:49:59.163Z,42.2
2019-02-09T05:51:00.928Z,42.13
2019-02-09T05:51:59.112Z,42.13
2019-02-09T05:52:59.911Z,42.18
2019-02-09T05:53:59.420Z,42.17
2019-02-09T05:54:59.257Z,42.07
2019-02-09T05:55:59.117Z,42.13
2019-02-09T05:56:59.075Z,42.24
2019-02-09T05:58:00.034Z,42.15
2019-02-09T05:58:59.934Z,42.2
2019-02-09T05:59:59.131Z,42.1
2019-02-09T06:00:59.516Z,42.14
2019-02-09T06:01:59.696Z,42.12
2019-02-09T06:03:00.526Z,42.13
2019-02-09T06:03:59.289Z,42.06
2019-02-09T06:04:59.715Z,42.11
2019-02-09T06:05:59.521Z,42.14
2019-02-09T06:06:59.860Z,42.17
2019-02-09T06:08:00.274Z,42.16
2019-02-09T06:08:59.333Z,42.09
2019-02-09T06:09:59.589Z,42.09
2019-02-09T06:10:59.862Z,42.13
2019-02-09T06:11:59.371Z,42.12
2019-02-09T06:12:59.150Z,42.16
2019-02-09T06:13:59.212Z,42.07
2019-02-09T06:14:59.368Z,42.13
2019-02-09T06:15:59.115Z,42.09
2019-02-09T06:16:59.202Z,42.14
2019-02-09T06:17:59.009Z,42.1
2019-02-09T06:18:59.177Z,42.11
2019-02-09T06:20:00.535Z,42.1
2019-02-09T06:20:59.214Z,42.12
2019-02-09T06:21:59.760Z,42.05
2019-02-09T06:22:59.068Z,42.07
2019-02-09T06:23:59.476Z,42.1
2019-02-09T06:24:59.832Z,42.07
2019-02-09T06:25:58.978Z,42.08
2019-02-09T06:27:00.106Z,42.08
2019-02-09T06:27:59.334Z,42.09
2019-02-09T06:28:58.969Z,42.07
2019-02-09T06:29:59.031Z,42.11
2019-02-09T06:30:59.543Z,42.09
2019-02-09T06:31:59.383Z,42.1
2019-02-09T06:32:59.480Z,42.1
2019-02-09T06:33:59.100Z,42.08
2019-02-09T06:34:58.918Z,42.05
2019-02-09T06:35:59.147Z,42.06
2019-02-09T06:36:59.514Z,42.11
2019-02-09T06:37:59.973Z,42.08
2019-02-09T06:38:59.471Z,42.01
2019-02-09T06:39:59.030Z,42.05
2019-02-09T06:40:59.001Z,42.05
2019-02-09T06:41:59.674Z,42.1
2019-02-09T06:42:59.078Z,42.04
2019-02-09T06:43:59.294Z,42.06
2019-02-09T06:44:59.764Z,42.06
2019-02-09T06:45:59.344Z,42.02
2019-02-09T06:46:59.669Z,42.06
2019-02-09T06:47:59.180Z,42.02
2019-02-09T06:48:59.484Z,42.05
2019-02-09T06:49:58.998Z,42.08
2019-02-09T06:50:59.595Z,42.05
2019-02-09T06:51:59.367Z,42.02
2019-02-09T06:52:59.187Z,42.02
2019-02-09T06:53:59.421Z,42.05
2019-02-09T06:54:59.554Z,42.01
2019-02-09T06:56:01.013Z,42.04
2019-02-09T06:56:58.918Z,41.99
2019-02-09T06:57:59.110Z,42
2019-02-09T06:59:00.066Z,42
2019-02-09T06:59:59.371Z,42
2019-02-09T07:00:59.158Z,42
2019-02-09T07:01:59.152Z,42.03
2019-02-09T07:02:59.169Z,41.98
2019-02-09T07:04:00.018Z,42.11
2019-02-09T07:04:59.212Z,42.29
2019-02-09T07:05:59.104Z,42.49
2019-02-09T07:06:59.172Z,42.51
2019-02-09T07:07:58.958Z,42.34
2019-02-09T07:08:59.094Z,42.37
2019-02-09T07:09:59.248Z,42.4
2019-02-09T07:10:59.253Z,42.51
2019-02-09T07:11:59.370Z,42.5
2019-02-09T07:12:58.999Z,42.35
2019-02-09T07:13:59.243Z,42.33
2019-02-09T07:14:59.130Z,42.31
2019-02-09T07:15:59.244Z,42.28
2019-02-09T07:16:59.156Z,42.24
2019-02-09T07:17:59.178Z,42.2
2019-02-09T07:18:59.299Z,42.18
2019-02-09T07:19:59.395Z,42.18
2019-02-09T07:20:58.875Z,42.14
2019-02-09T07:21:59.753Z,42.09
2019-02-09T07:22:59.309Z,42.09
2019-02-09T07:23:59.137Z,42.12
2019-02-09T07:24:59.672Z,42.05
2019-02-09T07:25:59.251Z,42.04
2019-02-09T07:26:59.056Z,42.1
2019-02-09T07:27:59.150Z,42.02
2019-02-09T07:28:59.025Z,41.94
2019-02-09T07:29:59.072Z,41.97
2019-02-09T07:30:59.449Z,41.92
2019-02-09T07:31:59.323Z,41.86
2019-02-09T07:32:59.042Z,41.94
2019-02-09T07:33:59.306Z,41.93
2019-02-09T07:34:59.493Z,41.87
2019-02-09T07:35:59.255Z,41.91
2019-02-09T07:36:59.366Z,41.94
2019-02-09T07:37:58.827Z,41.95
2019-02-09T07:38:59.098Z,41.92
2019-02-09T07:39:58.975Z,41.88
2019-02-09T07:40:59.009Z,41.86
2019-02-09T07:41:59.738Z,41.81
2019-02-09T07:43:00.415Z,41.87
2019-02-09T07:43:59.143Z,41.87
2019-02-09T07:44:59.359Z,41.83
2019-02-09T07:45:59.204Z,41.74
2019-02-09T07:46:59.304Z,41.74
2019-02-09T07:47:59.508Z,41.74
2019-02-09T07:48:59.012Z,41.81
2019-02-09T07:49:59.646Z,41.94
2019-02-09T07:50:59.017Z,41.64
2019-02-09T07:51:59.502Z,41.88
2019-02-09T07:52:59.338Z,42.03
2019-02-09T07:53:59.417Z,41.79
2019-02-09T07:54:59.655Z,41.83
2019-02-09T07:56:00.062Z,41.86
2019-02-09T07:56:59.186Z,41.98
2019-02-09T07:57:59.046Z,41.97
2019-02-09T07:58:59.161Z,41.88
2019-02-09T07:59:59.243Z,41.93
2019-02-09T08:00:59.160Z,41.8
2019-02-09T08:02:05.180Z,41.93
2019-02-09T08:02:59.072Z,41.97
2019-02-09T08:03:59.072Z,41.9
2019-02-09T08:04:59.000Z,41.91
2019-02-09T08:05:59.023Z,41.95
2019-02-09T08:06:59.615Z,42
2019-02-09T08:08:00.985Z,41.96
2019-02-09T08:08:59.484Z,41.95
2019-02-09T08:09:59.758Z,41.94
2019-02-09T08:10:59.319Z,41.96
2019-02-09T08:11:59.294Z,41.95
2019-02-09T08:12:59.935Z,41.97
2019-02-09T08:13:59.093Z,41.96
2019-02-09T08:14:59.081Z,41.93
2019-02-09T08:15:59.470Z,42.02
2019-02-09T08:16:59.138Z,41.97
2019-02-09T08:17:59.696Z,41.97
2019-02-09T08:18:59.473Z,41.95
2019-02-09T08:19:59.162Z,41.91
2019-02-09T08:20:59.694Z,41.95
2019-02-09T08:21:59.144Z,41.9
2019-02-09T08:22:59.300Z,41.93
2019-02-09T08:23:59.415Z,41.91
2019-02-09T08:24:59.334Z,41.92
2019-02-09T08:25:59.182Z,41.89
2019-02-09T08:26:59.869Z,41.91
2019-02-09T08:27:59.493Z,41.9
2019-02-09T08:28:59.791Z,41.88
2019-02-09T08:29:59.194Z,41.9
2019-02-09T08:31:00.126Z,41.88
2019-02-09T08:31:59.596Z,41.91
2019-02-09T08:32:59.013Z,41.89
2019-02-09T08:33:59.931Z,41.9
2019-02-09T08:35:00.023Z,41.89
2019-02-09T08:35:58.977Z,41.86
2019-02-09T08:36:59.428Z,41.9
2019-02-09T08:37:59.571Z,41.89
2019-02-09T08:38:59.228Z,41.89
2019-02-09T08:39:59.165Z,41.88
2019-02-09T08:41:01.994Z,41.86
2019-02-09T08:42:02.067Z,41.85
2019-02-09T08:43:01.544Z,41.85
2019-02-09T08:44:01.144Z,41.83
2019-02-09T08:45:01.843Z,41.84
2019-02-09T08:45:59.479Z,41.88
2019-02-09T08:46:59.187Z,41.85
2019-02-09T08:47:59.566Z,41.85
2019-02-09T08:49:07.340Z,41.82
2019-02-09T08:49:59.293Z,41.82
2019-02-09T08:50:59.078Z,41.81
2019-02-09T08:51:59.524Z,41.8
2019-02-09T08:52:58.941Z,41.8
2019-02-09T08:53:59.159Z,41.82
2019-02-09T08:54:58.946Z,41.81
2019-02-09T08:55:59.253Z,41.81
2019-02-09T08:56:58.864Z,41.76
2019-02-09T08:57:59.289Z,41.78
2019-02-09T08:58:59.152Z,41.78
2019-02-09T08:59:58.917Z,41.76
2019-02-09T09:00:59.200Z,41.72
2019-02-09T09:01:59.295Z,41.76
2019-02-09T09:02:58.912Z,41.76
2019-02-09T09:03:59.528Z,41.74
2019-02-09T09:04:59.168Z,41.74
2019-02-09T09:05:59.058Z,41.75
2019-02-09T09:06:59.226Z,41.76
2019-02-09T09:07:58.791Z,41.78
2019-02-09T09:09:00.828Z,41.78
2019-02-09T09:09:59.041Z,41.76
2019-02-09T09:10:59.109Z,41.75
2019-02-09T09:11:59.447Z,41.76
2019-02-09T09:12:59.110Z,41.78
2019-02-09T09:14:00.870Z,41.77
2019-02-09T09:14:59.758Z,41.7
2019-02-09T09:15:58.827Z,41.78
2019-02-09T09:16:58.928Z,41.74
2019-02-09T09:17:59.404Z,41.69
2019-02-09T09:18:59.208Z,41.77
2019-02-09T09:19:58.941Z,41.72
2019-02-09T09:20:59.461Z,41.75
2019-02-09T09:21:59.231Z,41.73
2019-02-09T09:22:59.442Z,41.73
2019-02-09T09:23:59.100Z,41.71
2019-02-09T09:24:59.839Z,41.75
2019-02-09T09:25:59.282Z,41.68
2019-02-09T09:27:00.386Z,41.7
2019-02-09T09:27:59.414Z,41.66
2019-02-09T09:28:59.272Z,41.7
2019-02-09T09:29:59.201Z,41.67
2019-02-09T09:30:59.303Z,41.7
2019-02-09T09:31:59.456Z,41.68
2019-02-09T09:32:59.333Z,41.69
2019-02-09T09:33:59.318Z,41.72
2019-02-09T09:35:00.407Z,41.72
2019-02-09T09:36:05.461Z,41.66
2019-02-09T09:36:59.181Z,41.67
2019-02-09T09:37:59.864Z,41.65
2019-02-09T09:38:58.966Z,41.69
2019-02-09T09:39:58.943Z,41.68
2019-02-09T09:40:59.524Z,41.64
2019-02-09T09:41:59.089Z,41.65
2019-02-09T09:42:59.101Z,41.66
2019-02-09T09:43:59.499Z,41.63
2019-02-09T09:44:59.403Z,41.67
2019-02-09T09:45:59.537Z,41.61
2019-02-09T09:47:00.815Z,41.63
2019-02-09T09:47:59.336Z,41.8
2019-02-09T09:49:00.948Z,41.98
2019-02-09T09:49:59.634Z,42.37
2019-02-09T09:51:00.266Z,42.56
2019-02-09T09:51:59.146Z,42.55
2019-02-09T09:52:58.805Z,42.78
2019-02-09T09:54:00.416Z,42.61
2019-02-09T09:54:58.935Z,42.59
2019-02-09T09:55:58.994Z,42.5
2019-02-09T09:57:00.756Z,42.56
2019-02-09T09:57:58.944Z,42.41
2019-02-09T09:59:00.897Z,42.35
2019-02-09T09:59:59.066Z,42.24
2019-02-09T10:00:59.427Z,42.28
2019-02-09T10:01:59.341Z,42.24
2019-02-09T10:02:59.362Z,42.16
2019-02-09T10:03:59.321Z,42.4
2019-02-09T10:04:59.342Z,42.59
2019-02-09T10:05:58.942Z,42.2
2019-02-09T10:06:58.970Z,42.29
2019-02-09T10:07:59.765Z,42.8
2019-02-09T10:08:59.245Z,42.72
2019-02-09T10:09:59.384Z,42.38
2019-02-09T10:11:00.926Z,42.42
2019-02-09T10:12:00.783Z,42.45
2019-02-09T10:12:59.037Z,42.29
2019-02-09T10:13:59.918Z,42.11
2019-02-09T10:14:58.808Z,42.16
2019-02-09T10:15:59.144Z,43.22
2019-02-09T10:16:59.841Z,43.36
2019-02-09T10:17:59.111Z,42.99
2019-02-09T10:18:58.978Z,43.41
2019-02-09T10:19:59.265Z,43.71
2019-02-09T10:20:59.107Z,44.51
2019-02-09T10:22:00.842Z,43.87
2019-02-09T10:22:58.940Z,43.93
2019-02-09T10:23:59.059Z,44
2019-02-09T10:24:59.220Z,44.64
2019-02-09T10:25:59.215Z,44.65
2019-02-09T10:26:59.497Z,44.83
2019-02-09T10:27:58.778Z,45.13
2019-02-09T10:28:59.633Z,43.72
2019-02-09T10:29:59.212Z,43.1
2019-02-09T10:30:59.314Z,42.76
2019-02-09T10:31:58.928Z,43.86
2019-02-09T10:33:00.692Z,44
2019-02-09T10:33:59.282Z,44.31
2019-02-09T10:34:59.120Z,44.45
2019-02-09T10:35:58.929Z,43.59
2019-02-09T10:36:59.074Z,43.12
2019-02-09T10:37:59.011Z,43.18
2019-02-09T10:38:58.965Z,43.47
2019-02-09T10:39:59.269Z,43.59
2019-02-09T10:40:59.116Z,42.86
2019-02-09T10:41:58.968Z,43.47
2019-02-09T10:42:59.171Z,42.56
2019-02-09T10:43:59.322Z,43.4
2019-02-09T10:44:59.469Z,43.61
2019-02-09T10:45:59.322Z,42.88
2019-02-09T10:46:59.017Z,43.12
2019-02-09T10:47:59.503Z,42.71
2019-02-09T10:48:59.349Z,43.14
2019-02-09T10:49:59.029Z,43.05
2019-02-09T10:50:58.920Z,43.73
2019-02-09T10:51:59.370Z,42.77
2019-02-09T10:52:59.758Z,42.96
2019-02-09T10:53:58.837Z,42.96
2019-02-09T10:54:59.492Z,43.04
2019-02-09T10:55:59.196Z,42.73
2019-02-09T10:56:59.316Z,42.87
2019-02-09T10:58:00.981Z,43.1
2019-02-09T10:58:59.674Z,43.52
2019-02-09T10:59:59.010Z,43.02
2019-02-09T11:00:59.575Z,43.48
2019-02-09T11:02:00.834Z,44.52
2019-02-09T11:02:59.003Z,43.43
2019-02-09T11:03:59.472Z,43.36
2019-02-09T11:04:58.891Z,43.05
2019-02-09T11:05:58.934Z,43.43
2019-02-09T11:06:59.920Z,43.45
2019-02-09T11:07:59.059Z,43.73
2019-02-09T11:08:58.861Z,43.44
2019-02-09T11:09:58.909Z,43.22
2019-02-09T11:10:59.146Z,43.81
2019-02-09T11:11:59.099Z,43.29
2019-02-09T11:12:59.425Z,43.08
2019-02-09T11:13:58.976Z,43.78
2019-02-09T11:14:59.766Z,44.3
2019-02-09T11:15:59.367Z,42.96
2019-02-09T11:16:59.145Z,43.3
2019-02-09T11:18:06.080Z,42.63
2019-02-09T11:18:59.155Z,43.13
2019-02-09T11:19:59.089Z,44.31
2019-02-09T11:20:58.878Z,43.81
2019-02-09T11:22:00.874Z,44.21
2019-02-09T11:22:59.472Z,43.46
2019-02-09T11:23:59.834Z,42.89
2019-02-09T11:24:58.767Z,43.99
2019-02-09T11:25:59.376Z,43.69
2019-02-09T11:27:00.812Z,44.08
2019-02-09T11:27:59.037Z,43.09
2019-02-09T11:28:58.870Z,44.04
2019-02-09T11:30:00.538Z,44.5
2019-02-09T11:31:01.111Z,43.76
2019-02-09T11:31:59.450Z,42.97
2019-02-09T11:33:02.950Z,44
2019-02-09T11:33:59.124Z,43.12
2019-02-09T11:34:58.996Z,43.98
2019-02-09T11:36:00.296Z,43.94
2019-02-09T11:36:58.911Z,44.32
2019-02-09T11:37:59.486Z,44.06
2019-02-09T11:38:58.874Z,42.83
2019-02-09T11:39:58.948Z,42.55
2019-02-09T11:40:59.617Z,42.91
2019-02-09T11:41:59.352Z,43.62
2019-02-09T11:42:59.556Z,42.59
2019-02-09T11:43:58.869Z,42.84
2019-02-09T11:45:00.815Z,42.61
2019-02-09T11:45:59.027Z,42.79
2019-02-09T11:46:59.874Z,42.41
2019-02-09T11:47:58.829Z,42.79
2019-02-09T11:48:59.246Z,42.48
2019-02-09T11:49:59.287Z,42.23
2019-02-09T11:50:59.895Z,42.33
2019-02-09T11:51:59.537Z,42.37
2019-02-09T11:52:58.921Z,42.41
2019-02-09T11:53:58.942Z,42.36
2019-02-09T11:54:59.196Z,42.83
2019-02-09T11:55:59.225Z,42.29
2019-02-09T11:56:59.548Z,42.14
2019-02-09T11:57:59.240Z,42.15
2019-02-09T11:58:58.903Z,42.75
2019-02-09T11:59:59.566Z,42.16
2019-02-09T12:00:58.881Z,42.3
2019-02-09T12:01:59.674Z,42.78
2019-02-09T12:03:16.646Z,42.61
2019-02-09T12:03:59.127Z,42.36
2019-02-09T12:04:59.010Z,42.42
2019-02-09T12:05:59.080Z,42.33
2019-02-09T12:06:59.253Z,42.25
2019-02-09T12:07:59.036Z,42.48
2019-02-09T12:08:58.805Z,42.23
2019-02-09T12:09:59.711Z,42.24
2019-02-09T12:10:59.222Z,42.52
2019-02-09T12:11:58.851Z,42.06
2019-02-09T12:12:59.267Z,42.23
2019-02-09T12:13:59.138Z,42.16
2019-02-09T12:14:59.137Z,41.98
2019-02-09T12:15:59.104Z,42.1
2019-02-09T12:16:58.948Z,42.02
2019-02-09T12:17:59.120Z,42.32
2019-02-09T12:18:58.928Z,42.67
2019-02-09T12:19:59.067Z,42.21
2019-02-09T12:20:58.909Z,42.12
2019-02-09T12:21:59.100Z,42.08
2019-02-09T12:22:59.136Z,41.99
2019-02-09T12:23:59.027Z,42.08
2019-02-09T12:24:58.913Z,42.11
2019-02-09T12:25:58.829Z,42.05
2019-02-09T12:26:58.773Z,42.08
2019-02-09T12:27:59.189Z,42.24
2019-02-09T12:28:59.269Z,42.06
2019-02-09T12:29:59.215Z,42.21
2019-02-09T12:30:59.060Z,41.91
2019-02-09T12:31:59.597Z,41.99
2019-02-09T12:32:58.888Z,42.25
2019-02-09T12:34:00.687Z,42.03
2019-02-09T12:34:59.093Z,41.93
2019-02-09T12:35:59.209Z,42.59
2019-02-09T12:36:59.319Z,42.05
2019-02-09T12:37:59.427Z,42.67
2019-02-09T12:38:58.821Z,42.41
2019-02-09T12:39:59.427Z,42.01
2019-02-09T12:40:59.019Z,41.88
2019-02-09T12:41:59.587Z,41.85
2019-02-09T12:43:00.865Z,42.16
2019-02-09T12:43:58.829Z,41.89
2019-02-09T12:45:00.448Z,41.97
2019-02-09T12:45:58.993Z,41.82
2019-02-09T12:46:58.809Z,42.24
2019-02-09T12:48:00.015Z,41.9
2019-02-09T12:48:59.209Z,41.92
2019-02-09T12:50:00.693Z,42.11
2019-02-09T12:50:58.960Z,41.96
2019-02-09T12:51:59.098Z,41.82
2019-02-09T12:52:58.905Z,41.75
2019-02-09T12:53:58.847Z,41.72
2019-02-09T12:54:59.333Z,41.71
2019-02-09T12:55:59.246Z,41.68